sensor_id;sensor_type;location;lat;lon;timestamp;P1;durP1;ratioP1;P2;durP2;ratioP2
44430;SDS011;30135;47.866;-4.222;2023-02-28T00:01:12;12.57;;;1.70;;
44430;SDS011;30135;47.866;-4.222;2023-02-28T00:03:39;5.60;;;1.38;;
44430;SDS011;30135;47.866;-4.222;2023-02-28T00:06:05;8.88;;;1.58;;
44430;SDS011;30135;47.866;-4.222;2023-02-28T00:08:34;10.07;;;2.03;;
44430;SDS011;30135;47.866;-4.222;2023-02-28T00:11:05;12.38;;;2.42;;
44430;SDS011;30135;47.866;-4.222;2023-02-28T00:13:35;5.88;;;1.73;;
44430;SDS011;30135;47.866;-4.222;2023-02-28T00:16:06;5.15;;;1.50;;
44430;SDS011;30135;47.866;-4.222;2023-02-28T00:18:34;11.32;;;2.00;;
44430;SDS011;30135;47.866;-4.222;2023-02-28T00:21:01;6.22;;;1.75;;
44430;SDS011;30135;47.866;-4.222;2023-02-28T00:23:27;10.30;;;1.83;;
44430;SDS011;30135;47.866;-4.222;2023-02-28T00:25:53;7.93;;;1.50;;
44430;SDS011;30135;47.866;-4.222;2023-02-28T00:28:20;9.68;;;1.30;;
44430;SDS011;30135;47.866;-4.222;2023-02-28T00:30:46;7.95;;;1.90;;
44430;SDS011;30135;47.866;-4.222;2023-02-28T00:33:13;13.10;;;2.58;;
44430;SDS011;30135;47.866;-4.222;2023-02-28T00:35:39;9.52;;;1.88;;
44430;SDS011;30135;47.866;-4.222;2023-02-28T00:38:05;10.15;;;1.95;;
44430;SDS011;30135;47.866;-4.222;2023-02-28T00:40:31;7.13;;;2.25;;
44430;SDS011;30135;47.866;-4.222;2023-02-28T00:42:57;7.82;;;2.33;;
44430;SDS011;30135;47.866;-4.222;2023-02-28T00:45:23;14.73;;;2.55;;
44430;SDS011;30135;47.866;-4.222;2023-02-28T00:47:49;7.63;;;2.30;;
44430;SDS011;30135;47.866;-4.222;2023-02-28T00:50:17;11.23;;;2.78;;
44430;SDS011;30135;47.866;-4.222;2023-02-28T00:52:45;12.80;;;2.90;;
44430;SDS011;30135;47.866;-4.222;2023-02-28T00:55:11;9.32;;;2.75;;
44430;SDS011;30135;47.866;-4.222;2023-02-28T00:57:38;9.48;;;2.22;;
44430;SDS011;30135;47.866;-4.222;2023-02-28T01:00:05;13.18;;;2.90;;
44430;SDS011;30135;47.866;-4.222;2023-02-28T01:02:32;6.20;;;2.38;;
44430;SDS011;30135;47.866;-4.222;2023-02-28T01:04:58;4.70;;;1.90;;
44430;SDS011;30135;47.866;-4.222;2023-02-28T01:07:24;8.05;;;2.00;;
44430;SDS011;30135;47.866;-4.222;2023-02-28T01:09:54;22.35;;;3.08;;
44430;SDS011;30135;47.866;-4.222;2023-02-28T01:12:20;19.55;;;2.53;;
44430;SDS011;30135;47.866;-4.222;2023-02-28T01:14:46;8.90;;;1.95;;
44430;SDS011;30135;47.866;-4.222;2023-02-28T01:17:12;9.32;;;1.50;;
44430;SDS011;30135;47.866;-4.222;2023-02-28T01:19:38;9.45;;;1.88;;
44430;SDS011;30135;47.866;-4.222;2023-02-28T01:22:04;7.35;;;1.52;;
44430;SDS011;30135;47.866;-4.222;2023-02-28T01:24:31;8.00;;;1.50;;
44430;SDS011;30135;47.866;-4.222;2023-02-28T01:26:57;9.82;;;1.92;;
44430;SDS011;30135;47.866;-4.222;2023-02-28T01:29:23;4.47;;;1.73;;
44430;SDS011;30135;47.866;-4.222;2023-02-28T01:31:49;7.18;;;1.13;;
44430;SDS011;30135;47.866;-4.222;2023-02-28T01:34:15;9.75;;;1.38;;
44430;SDS011;30135;47.866;-4.222;2023-02-28T01:36:44;12.30;;;2.35;;
44430;SDS011;30135;47.866;-4.222;2023-02-28T01:39:10;10.43;;;1.60;;
44430;SDS011;30135;47.866;-4.222;2023-02-28T01:41:37;11.10;;;1.45;;
44430;SDS011;30135;47.866;-4.222;2023-02-28T01:47:21;2.75;;;0.95;;
44430;SDS011;30135;47.866;-4.222;2023-02-28T01:49:48;11.90;;;2.47;;
44430;SDS011;30135;47.866;-4.222;2023-02-28T01:52:16;27.45;;;2.05;;
44430;SDS011;30135;47.866;-4.222;2023-02-28T01:54:45;6.82;;;1.30;;
44430;SDS011;30135;47.866;-4.222;2023-02-28T01:57:17;11.68;;;1.63;;
44430;SDS011;30135;47.866;-4.222;2023-02-28T01:59:57;5.72;;;1.55;;
44430;SDS011;30135;47.866;-4.222;2023-02-28T02:02:26;6.03;;;1.08;;
44430;SDS011;30135;47.866;-4.222;2023-02-28T02:04:55;7.22;;;1.40;;
44430;SDS011;30135;47.866;-4.222;2023-02-28T02:07:32;7.80;;;1.10;;
44430;SDS011;30135;47.866;-4.222;2023-02-28T02:18:57;5.47;;;1.00;;
44430;SDS011;30135;47.866;-4.222;2023-02-28T02:22:01;9.25;;;2.03;;
44430;SDS011;30135;47.866;-4.222;2023-02-28T02:27:39;4.30;;;0.90;;
44430;SDS011;30135;47.866;-4.222;2023-02-28T02:37:16;3.25;;;0.75;;
44430;SDS011;30135;47.866;-4.222;2023-02-28T02:42:51;11.35;;;2.47;;
44430;SDS011;30135;47.866;-4.222;2023-02-28T02:45:29;12.50;;;2.42;;
44430;SDS011;30135;47.866;-4.222;2023-02-28T02:48:09;3.80;;;1.63;;
44430;SDS011;30135;47.866;-4.222;2023-02-28T02:50:42;3.30;;;1.13;;
44430;SDS011;30135;47.866;-4.222;2023-02-28T02:53:21;8.32;;;1.73;;
44430;SDS011;30135;47.866;-4.222;2023-02-28T02:55:54;5.25;;;2.13;;
44430;SDS011;30135;47.866;-4.222;2023-02-28T02:58:25;6.57;;;1.63;;
44430;SDS011;30135;47.866;-4.222;2023-02-28T03:01:01;6.28;;;1.95;;
44430;SDS011;30135;47.866;-4.222;2023-02-28T03:03:29;10.98;;;1.55;;
44430;SDS011;30135;47.866;-4.222;2023-02-28T03:05:58;10.38;;;2.10;;
44430;SDS011;30135;47.866;-4.222;2023-02-28T03:08:26;8.55;;;1.15;;
44430;SDS011;30135;47.866;-4.222;2023-02-28T03:11:00;4.28;;;1.17;;
44430;SDS011;30135;47.866;-4.222;2023-02-28T03:18:55;3.47;;;0.95;;
44430;SDS011;30135;47.866;-4.222;2023-02-28T03:24:32;7.82;;;2.28;;
44430;SDS011;30135;47.866;-4.222;2023-02-28T03:30:02;9.88;;;0.90;;
44430;SDS011;30135;47.866;-4.222;2023-02-28T03:32:40;6.13;;;1.08;;
44430;SDS011;30135;47.866;-4.222;2023-02-28T03:35:23;6.38;;;1.25;;
44430;SDS011;30135;47.866;-4.222;2023-02-28T03:38:09;13.88;;;1.15;;
44430;SDS011;30135;47.866;-4.222;2023-02-28T03:40:49;6.10;;;1.55;;
44430;SDS011;30135;47.866;-4.222;2023-02-28T03:43:27;7.65;;;1.48;;
44430;SDS011;30135;47.866;-4.222;2023-02-28T03:45:58;7.45;;;1.48;;
44430;SDS011;30135;47.866;-4.222;2023-02-28T03:48:30;4.18;;;1.88;;
44430;SDS011;30135;47.866;-4.222;2023-02-28T03:51:05;3.72;;;1.45;;
44430;SDS011;30135;47.866;-4.222;2023-02-28T03:53:36;10.00;;;1.30;;
44430;SDS011;30135;47.866;-4.222;2023-02-28T03:56:19;6.90;;;1.52;;
44430;SDS011;30135;47.866;-4.222;2023-02-28T03:59:02;3.15;;;1.23;;
44430;SDS011;30135;47.866;-4.222;2023-02-28T04:04:13;2.53;;;1.05;;
44430;SDS011;30135;47.866;-4.222;2023-02-28T04:06:40;2.90;;;0.85;;
44430;SDS011;30135;47.866;-4.222;2023-02-28T04:09:08;8.05;;;1.30;;
44430;SDS011;30135;47.866;-4.222;2023-02-28T04:11:41;7.72;;;1.42;;
44430;SDS011;30135;47.866;-4.222;2023-02-28T04:14:17;4.57;;;1.27;;
44430;SDS011;30135;47.866;-4.222;2023-02-28T04:16:43;4.43;;;1.20;;
44430;SDS011;30135;47.866;-4.222;2023-02-28T04:19:11;6.15;;;0.90;;
44430;SDS011;30135;47.866;-4.222;2023-02-28T04:21:39;3.70;;;1.40;;
44430;SDS011;30135;47.866;-4.222;2023-02-28T04:24:10;4.38;;;1.52;;
44430;SDS011;30135;47.866;-4.222;2023-02-28T04:26:40;6.25;;;1.35;;
44430;SDS011;30135;47.866;-4.222;2023-02-28T04:29:09;7.68;;;1.48;;
44430;SDS011;30135;47.866;-4.222;2023-02-28T04:31:38;5.63;;;0.85;;
44430;SDS011;30135;47.866;-4.222;2023-02-28T04:34:07;5.67;;;1.10;;
44430;SDS011;30135;47.866;-4.222;2023-02-28T04:36:33;10.05;;;1.30;;
44430;SDS011;30135;47.866;-4.222;2023-02-28T04:38:59;6.05;;;1.42;;
44430;SDS011;30135;47.866;-4.222;2023-02-28T04:41:25;13.52;;;1.52;;
44430;SDS011;30135;47.866;-4.222;2023-02-28T04:43:52;5.82;;;1.52;;
44430;SDS011;30135;47.866;-4.222;2023-02-28T04:46:18;12.60;;;1.60;;
44430;SDS011;30135;47.866;-4.222;2023-02-28T04:48:45;7.85;;;2.33;;
44430;SDS011;30135;47.866;-4.222;2023-02-28T04:51:12;6.20;;;1.70;;
44430;SDS011;30135;47.866;-4.222;2023-02-28T04:53:40;9.02;;;1.23;;
44430;SDS011;30135;47.866;-4.222;2023-02-28T04:56:08;5.60;;;1.45;;
44430;SDS011;30135;47.866;-4.222;2023-02-28T04:58:38;4.88;;;1.17;;
44430;SDS011;30135;47.866;-4.222;2023-02-28T05:01:05;8.85;;;2.80;;
44430;SDS011;30135;47.866;-4.222;2023-02-28T05:03:44;8.38;;;1.73;;
44430;SDS011;30135;47.866;-4.222;2023-02-28T05:06:10;12.65;;;2.13;;
44430;SDS011;30135;47.866;-4.222;2023-02-28T05:08:40;6.18;;;1.67;;
44430;SDS011;30135;47.866;-4.222;2023-02-28T05:11:39;22.67;;;2.30;;
44430;SDS011;30135;47.866;-4.222;2023-02-28T05:14:04;5.68;;;2.10;;
44430;SDS011;30135;47.866;-4.222;2023-02-28T05:16:38;13.30;;;2.25;;
44430;SDS011;30135;47.866;-4.222;2023-02-28T05:19:04;5.35;;;1.60;;
44430;SDS011;30135;47.866;-4.222;2023-02-28T05:21:40;10.63;;;2.45;;
44430;SDS011;30135;47.866;-4.222;2023-02-28T05:24:14;9.05;;;1.50;;
44430;SDS011;30135;47.866;-4.222;2023-02-28T05:26:47;8.90;;;2.63;;
44430;SDS011;30135;47.866;-4.222;2023-02-28T05:29:16;8.32;;;2.08;;
44430;SDS011;30135;47.866;-4.222;2023-02-28T05:31:42;4.85;;;2.15;;
44430;SDS011;30135;47.866;-4.222;2023-02-28T05:34:08;3.60;;;1.52;;
44430;SDS011;30135;47.866;-4.222;2023-02-28T05:36:37;7.28;;;1.55;;
44430;SDS011;30135;47.866;-4.222;2023-02-28T05:39:07;8.90;;;1.65;;
44430;SDS011;30135;47.866;-4.222;2023-02-28T05:41:38;13.70;;;1.60;;
44430;SDS011;30135;47.866;-4.222;2023-02-28T05:44:08;4.75;;;1.42;;
44430;SDS011;30135;47.866;-4.222;2023-02-28T05:46:35;4.93;;;1.65;;
44430;SDS011;30135;47.866;-4.222;2023-02-28T05:49:01;6.28;;;2.30;;
44430;SDS011;30135;47.866;-4.222;2023-02-28T05:51:28;3.10;;;0.95;;
44430;SDS011;30135;47.866;-4.222;2023-02-28T05:53:54;12.13;;;1.35;;
44430;SDS011;30135;47.866;-4.222;2023-02-28T05:56:26;9.75;;;1.95;;
44430;SDS011;30135;47.866;-4.222;2023-02-28T05:58:53;5.72;;;1.38;;
44430;SDS011;30135;47.866;-4.222;2023-02-28T06:01:22;4.60;;;1.35;;
44430;SDS011;30135;47.866;-4.222;2023-02-28T06:03:50;12.43;;;1.63;;
44430;SDS011;30135;47.866;-4.222;2023-02-28T06:06:17;8.38;;;1.77;;
44430;SDS011;30135;47.866;-4.222;2023-02-28T06:08:43;7.88;;;1.58;;
44430;SDS011;30135;47.866;-4.222;2023-02-28T06:11:09;5.85;;;1.20;;
44430;SDS011;30135;47.866;-4.222;2023-02-28T06:13:42;9.75;;;1.90;;
44430;SDS011;30135;47.866;-4.222;2023-02-28T06:16:10;4.53;;;1.20;;
44430;SDS011;30135;47.866;-4.222;2023-02-28T06:18:37;12.23;;;2.10;;
44430;SDS011;30135;47.866;-4.222;2023-02-28T06:21:03;10.48;;;1.50;;
44430;SDS011;30135;47.866;-4.222;2023-02-28T06:23:30;18.10;;;3.03;;
44430;SDS011;30135;47.866;-4.222;2023-02-28T06:25:56;9.75;;;1.83;;
44430;SDS011;30135;47.866;-4.222;2023-02-28T06:28:23;18.45;;;3.60;;
44430;SDS011;30135;47.866;-4.222;2023-02-28T06:30:51;8.30;;;1.75;;
44430;SDS011;30135;47.866;-4.222;2023-02-28T06:33:17;13.50;;;2.28;;
44430;SDS011;30135;47.866;-4.222;2023-02-28T06:35:46;8.30;;;2.45;;
44430;SDS011;30135;47.866;-4.222;2023-02-28T06:38:15;3.90;;;1.92;;
44430;SDS011;30135;47.866;-4.222;2023-02-28T06:40:41;8.75;;;2.63;;
44430;SDS011;30135;47.866;-4.222;2023-02-28T06:43:08;8.77;;;2.33;;
44430;SDS011;30135;47.866;-4.222;2023-02-28T06:45:41;11.05;;;2.50;;
44430;SDS011;30135;47.866;-4.222;2023-02-28T06:48:10;13.40;;;3.08;;
44430;SDS011;30135;47.866;-4.222;2023-02-28T06:50:36;8.18;;;2.28;;
44430;SDS011;30135;47.866;-4.222;2023-02-28T06:53:02;11.50;;;3.10;;
44430;SDS011;30135;47.866;-4.222;2023-02-28T06:55:28;11.00;;;3.47;;
44430;SDS011;30135;47.866;-4.222;2023-02-28T06:57:54;6.90;;;2.97;;
44430;SDS011;30135;47.866;-4.222;2023-02-28T07:00:20;9.65;;;2.85;;
44430;SDS011;30135;47.866;-4.222;2023-02-28T07:02:47;14.27;;;2.15;;
44430;SDS011;30135;47.866;-4.222;2023-02-28T07:05:13;5.00;;;1.63;;
44430;SDS011;30135;47.866;-4.222;2023-02-28T07:07:39;10.88;;;3.03;;
44430;SDS011;30135;47.866;-4.222;2023-02-28T07:10:09;9.57;;;2.00;;
44430;SDS011;30135;47.866;-4.222;2023-02-28T07:12:37;11.13;;;1.80;;
44430;SDS011;30135;47.866;-4.222;2023-02-28T07:15:04;7.38;;;1.45;;
44430;SDS011;30135;47.866;-4.222;2023-02-28T07:17:31;7.63;;;1.92;;
44430;SDS011;30135;47.866;-4.222;2023-02-28T07:19:57;21.63;;;3.05;;
44430;SDS011;30135;47.866;-4.222;2023-02-28T07:22:23;4.90;;;1.90;;
44430;SDS011;30135;47.866;-4.222;2023-02-28T07:24:50;13.73;;;1.92;;
44430;SDS011;30135;47.866;-4.222;2023-02-28T07:27:16;7.97;;;2.65;;
44430;SDS011;30135;47.866;-4.222;2023-02-28T07:29:49;10.82;;;1.80;;
44430;SDS011;30135;47.866;-4.222;2023-02-28T07:32:15;11.52;;;2.60;;
44430;SDS011;30135;47.866;-4.222;2023-02-28T07:34:41;10.13;;;4.25;;
44430;SDS011;30135;47.866;-4.222;2023-02-28T07:37:07;21.08;;;5.32;;
44430;SDS011;30135;47.866;-4.222;2023-02-28T07:39:34;19.25;;;6.38;;
44430;SDS011;30135;47.866;-4.222;2023-02-28T07:42:00;22.58;;;5.65;;
44430;SDS011;30135;47.866;-4.222;2023-02-28T07:44:31;23.33;;;6.13;;
44430;SDS011;30135;47.866;-4.222;2023-02-28T07:46:57;16.33;;;5.10;;
44430;SDS011;30135;47.866;-4.222;2023-02-28T07:49:27;22.67;;;5.13;;
44430;SDS011;30135;47.866;-4.222;2023-02-28T07:51:53;16.05;;;4.10;;
44430;SDS011;30135;47.866;-4.222;2023-02-28T07:54:20;11.05;;;3.30;;
44430;SDS011;30135;47.866;-4.222;2023-02-28T07:56:46;27.67;;;3.28;;
44430;SDS011;30135;47.866;-4.222;2023-02-28T07:59:12;12.52;;;3.03;;
44430;SDS011;30135;47.866;-4.222;2023-02-28T08:01:38;14.75;;;3.25;;
44430;SDS011;30135;47.866;-4.222;2023-02-28T08:04:05;9.80;;;2.90;;
44430;SDS011;30135;47.866;-4.222;2023-02-28T08:06:31;14.30;;;2.58;;
44430;SDS011;30135;47.866;-4.222;2023-02-28T08:08:57;9.27;;;2.53;;
44430;SDS011;30135;47.866;-4.222;2023-02-28T08:11:24;16.15;;;4.45;;
44430;SDS011;30135;47.866;-4.222;2023-02-28T08:13:50;10.90;;;3.05;;
44430;SDS011;30135;47.866;-4.222;2023-02-28T08:16:16;6.13;;;3.20;;
44430;SDS011;30135;47.866;-4.222;2023-02-28T08:18:47;15.70;;;4.18;;
44430;SDS011;30135;47.866;-4.222;2023-02-28T08:21:16;9.75;;;3.67;;
44430;SDS011;30135;47.866;-4.222;2023-02-28T08:23:45;16.52;;;3.95;;
44430;SDS011;30135;47.866;-4.222;2023-02-28T08:26:16;16.25;;;4.15;;
44430;SDS011;30135;47.866;-4.222;2023-02-28T08:28:43;12.68;;;4.03;;
44430;SDS011;30135;47.866;-4.222;2023-02-28T08:31:10;11.35;;;4.72;;
44430;SDS011;30135;47.866;-4.222;2023-02-28T08:33:39;10.10;;;3.65;;
44430;SDS011;30135;47.866;-4.222;2023-02-28T08:36:07;9.52;;;4.28;;
44430;SDS011;30135;47.866;-4.222;2023-02-28T08:38:34;15.55;;;4.07;;
44430;SDS011;30135;47.866;-4.222;2023-02-28T08:41:03;15.05;;;4.75;;
44430;SDS011;30135;47.866;-4.222;2023-02-28T08:43:32;12.18;;;4.72;;
44430;SDS011;30135;47.866;-4.222;2023-02-28T08:45:59;12.43;;;4.13;;
44430;SDS011;30135;47.866;-4.222;2023-02-28T08:48:26;11.32;;;5.15;;
44430;SDS011;30135;47.866;-4.222;2023-02-28T08:50:56;14.00;;;5.10;;
44430;SDS011;30135;47.866;-4.222;2023-02-28T08:53:27;10.63;;;4.55;;
44430;SDS011;30135;47.866;-4.222;2023-02-28T08:56:01;19.98;;;5.07;;
44430;SDS011;30135;47.866;-4.222;2023-02-28T08:58:34;13.32;;;4.70;;
44430;SDS011;30135;47.866;-4.222;2023-02-28T09:01:07;8.25;;;4.80;;
44430;SDS011;30135;47.866;-4.222;2023-02-28T09:03:42;10.18;;;4.70;;
44430;SDS011;30135;47.866;-4.222;2023-02-28T09:06:09;11.52;;;4.65;;
44430;SDS011;30135;47.866;-4.222;2023-02-28T09:08:36;12.63;;;4.82;;
44430;SDS011;30135;47.866;-4.222;2023-02-28T09:11:03;12.18;;;5.00;;
44430;SDS011;30135;47.866;-4.222;2023-02-28T09:13:29;13.27;;;5.03;;
44430;SDS011;30135;47.866;-4.222;2023-02-28T09:16:00;11.57;;;4.55;;
44430;SDS011;30135;47.866;-4.222;2023-02-28T09:18:28;11.38;;;4.78;;
44430;SDS011;30135;47.866;-4.222;2023-02-28T09:20:55;12.93;;;5.32;;
44430;SDS011;30135;47.866;-4.222;2023-02-28T09:23:23;10.75;;;4.20;;
44430;SDS011;30135;47.866;-4.222;2023-02-28T09:25:50;15.48;;;5.07;;
44430;SDS011;30135;47.866;-4.222;2023-02-28T09:28:19;15.90;;;5.40;;
44430;SDS011;30135;47.866;-4.222;2023-02-28T09:30:46;11.60;;;5.32;;
44430;SDS011;30135;47.866;-4.222;2023-02-28T09:35:42;17.13;;;5.35;;
44430;SDS011;30135;47.866;-4.222;2023-02-28T09:38:27;9.43;;;4.22;;
44430;SDS011;30135;47.866;-4.222;2023-02-28T09:41:15;14.77;;;5.60;;
44430;SDS011;30135;47.866;-4.222;2023-02-28T09:44:07;11.48;;;4.70;;
44430;SDS011;30135;47.866;-4.222;2023-02-28T09:47:13;10.13;;;4.35;;
44430;SDS011;30135;47.866;-4.222;2023-02-28T09:50:33;8.30;;;4.93;;
44430;SDS011;30135;47.866;-4.222;2023-02-28T09:53:28;10.18;;;4.80;;
44430;SDS011;30135;47.866;-4.222;2023-02-28T09:56:24;21.42;;;5.68;;
44430;SDS011;30135;47.866;-4.222;2023-02-28T09:59:29;16.50;;;5.18;;
44430;SDS011;30135;47.866;-4.222;2023-02-28T10:03:00;12.77;;;4.53;;
44430;SDS011;30135;47.866;-4.222;2023-02-28T10:06:19;13.48;;;5.45;;
44430;SDS011;30135;47.866;-4.222;2023-02-28T10:09:11;9.95;;;4.88;;
44430;SDS011;30135;47.866;-4.222;2023-02-28T10:12:06;11.57;;;4.05;;
44430;SDS011;30135;47.866;-4.222;2023-02-28T10:14:55;17.90;;;5.35;;
44430;SDS011;30135;47.866;-4.222;2023-02-28T10:17:45;10.07;;;3.90;;
44430;SDS011;30135;47.866;-4.222;2023-02-28T10:20:38;9.45;;;3.40;;
44430;SDS011;30135;47.866;-4.222;2023-02-28T10:23:31;8.23;;;3.88;;
44430;SDS011;30135;47.866;-4.222;2023-02-28T10:26:21;8.55;;;3.35;;
44430;SDS011;30135;47.866;-4.222;2023-02-28T10:29:09;8.35;;;2.60;;
44430;SDS011;30135;47.866;-4.222;2023-02-28T10:31:55;9.45;;;3.65;;
44430;SDS011;30135;47.866;-4.222;2023-02-28T10:34:42;6.15;;;3.40;;
44430;SDS011;30135;47.866;-4.222;2023-02-28T10:37:29;8.82;;;4.20;;
44430;SDS011;30135;47.866;-4.222;2023-02-28T10:43:04;7.47;;;3.22;;
44430;SDS011;30135;47.866;-4.222;2023-02-28T10:46:15;8.05;;;2.75;;
44430;SDS011;30135;47.866;-4.222;2023-02-28T10:49:14;6.18;;;2.92;;
44430;SDS011;30135;47.866;-4.222;2023-02-28T10:52:12;9.32;;;3.60;;
44430;SDS011;30135;47.866;-4.222;2023-02-28T10:55:13;8.48;;;2.75;;
44430;SDS011;30135;47.866;-4.222;2023-02-28T10:58:44;8.38;;;3.40;;
44430;SDS011;30135;47.866;-4.222;2023-02-28T11:04:35;5.25;;;2.88;;
44430;SDS011;30135;47.866;-4.222;2023-02-28T11:07:24;5.93;;;3.00;;
44430;SDS011;30135;47.866;-4.222;2023-02-28T11:10:17;11.15;;;3.75;;
44430;SDS011;30135;47.866;-4.222;2023-02-28T11:12:46;5.07;;;2.70;;
44430;SDS011;30135;47.866;-4.222;2023-02-28T11:20:50;7.93;;;2.92;;
44430;SDS011;30135;47.866;-4.222;2023-02-28T11:23:19;6.60;;;3.55;;
44430;SDS011;30135;47.866;-4.222;2023-02-28T11:25:47;5.60;;;2.95;;
44430;SDS011;30135;47.866;-4.222;2023-02-28T11:28:29;7.03;;;3.15;;
44430;SDS011;30135;47.866;-4.222;2023-02-28T11:39:04;6.57;;;3.45;;
44430;SDS011;30135;47.866;-4.222;2023-02-28T12:02:05;6.43;;;3.38;;
44430;SDS011;30135;47.866;-4.222;2023-02-28T12:04:52;4.80;;;2.67;;
44430;SDS011;30135;47.866;-4.222;2023-02-28T12:10:59;9.48;;;2.50;;
44430;SDS011;30135;47.866;-4.222;2023-02-28T12:19:31;6.63;;;3.15;;
44430;SDS011;30135;47.866;-4.222;2023-02-28T12:22:30;6.25;;;2.70;;
44430;SDS011;30135;47.866;-4.222;2023-02-28T12:25:23;5.93;;;2.50;;
44430;SDS011;30135;47.866;-4.222;2023-02-28T12:28:09;5.90;;;1.92;;
44430;SDS011;30135;47.866;-4.222;2023-02-28T12:30:43;8.25;;;2.92;;
44430;SDS011;30135;47.866;-4.222;2023-02-28T12:33:21;3.72;;;2.22;;
44430;SDS011;30135;47.866;-4.222;2023-02-28T12:35:55;3.72;;;1.92;;
44430;SDS011;30135;47.866;-4.222;2023-02-28T12:43:33;4.47;;;2.05;;
44430;SDS011;30135;47.866;-4.222;2023-02-28T12:46:34;6.28;;;3.25;;
44430;SDS011;30135;47.866;-4.222;2023-02-28T12:49:06;4.50;;;1.80;;
44430;SDS011;30135;47.866;-4.222;2023-02-28T12:51:38;2.78;;;1.67;;
44430;SDS011;30135;47.866;-4.222;2023-02-28T12:59:23;2.42;;;1.63;;
44430;SDS011;30135;47.866;-4.222;2023-02-28T13:10:47;2.00;;;1.27;;
44430;SDS011;30135;47.866;-4.222;2023-02-28T13:13:23;2.92;;;1.17;;
44430;SDS011;30135;47.866;-4.222;2023-02-28T13:21:08;3.00;;;1.52;;
44430;SDS011;30135;47.866;-4.222;2023-02-28T13:23:57;7.70;;;1.20;;
44430;SDS011;30135;47.866;-4.222;2023-02-28T13:28:57;9.45;;;0.75;;
44430;SDS011;30135;47.866;-4.222;2023-02-28T13:34:31;1.60;;;1.15;;
44430;SDS011;30135;47.866;-4.222;2023-02-28T13:53:24;1.45;;;0.90;;
44430;SDS011;30135;47.866;-4.222;2023-02-28T14:02:23;6.13;;;1.30;;
44430;SDS011;30135;47.866;-4.222;2023-02-28T14:05:15;4.70;;;1.02;;
44430;SDS011;30135;47.866;-4.222;2023-02-28T14:07:51;30.60;;;2.22;;
44430;SDS011;30135;47.866;-4.222;2023-02-28T14:10:31;2.97;;;0.68;;
44430;SDS011;30135;47.866;-4.222;2023-02-28T14:15:56;2.95;;;0.68;;
44430;SDS011;30135;47.866;-4.222;2023-02-28T14:18:30;4.90;;;0.95;;
44430;SDS011;30135;47.866;-4.222;2023-02-28T14:21:13;2.05;;;0.70;;
44430;SDS011;30135;47.866;-4.222;2023-02-28T14:38:24;2.95;;;0.70;;
44430;SDS011;30135;47.866;-4.222;2023-02-28T14:40:56;7.00;;;0.73;;
44430;SDS011;30135;47.866;-4.222;2023-02-28T14:43:27;4.80;;;1.00;;
44430;SDS011;30135;47.866;-4.222;2023-02-28T14:45:54;5.00;;;0.90;;
44430;SDS011;30135;47.866;-4.222;2023-02-28T14:48:24;2.40;;;0.82;;
44430;SDS011;30135;47.866;-4.222;2023-02-28T14:51:01;1.75;;;0.52;;
44430;SDS011;30135;47.866;-4.222;2023-02-28T14:53:34;1.90;;;0.98;;
44430;SDS011;30135;47.866;-4.222;2023-02-28T14:56:02;2.20;;;1.13;;
44430;SDS011;30135;47.866;-4.222;2023-02-28T14:58:30;7.47;;;1.48;;
44430;SDS011;30135;47.866;-4.222;2023-02-28T15:01:00;5.32;;;1.40;;
44430;SDS011;30135;47.866;-4.222;2023-02-28T15:06:01;2.20;;;0.88;;
44430;SDS011;30135;47.866;-4.222;2023-02-28T15:08:42;2.47;;;1.25;;
44430;SDS011;30135;47.866;-4.222;2023-02-28T15:11:16;4.93;;;1.33;;
44430;SDS011;30135;47.866;-4.222;2023-02-28T15:13:47;2.88;;;1.10;;
44430;SDS011;30135;47.866;-4.222;2023-02-28T15:16:19;2.42;;;0.90;;
44430;SDS011;30135;47.866;-4.222;2023-02-28T15:18:56;3.15;;;1.10;;
44430;SDS011;30135;47.866;-4.222;2023-02-28T15:24:04;7.60;;;1.15;;
44430;SDS011;30135;47.866;-4.222;2023-02-28T15:26:53;1.63;;;1.08;;
44430;SDS011;30135;47.866;-4.222;2023-02-28T15:29:23;3.58;;;1.10;;
44430;SDS011;30135;47.866;-4.222;2023-02-28T15:31:58;11.07;;;1.85;;
44430;SDS011;30135;47.866;-4.222;2023-02-28T15:34:39;6.40;;;1.08;;
44430;SDS011;30135;47.866;-4.222;2023-02-28T15:40:14;10.95;;;1.63;;
44430;SDS011;30135;47.866;-4.222;2023-02-28T15:42:59;5.13;;;1.80;;
44430;SDS011;30135;47.866;-4.222;2023-02-28T15:45:52;4.07;;;1.70;;
44430;SDS011;30135;47.866;-4.222;2023-02-28T15:48:20;12.30;;;1.80;;
44430;SDS011;30135;47.866;-4.222;2023-02-28T15:51:32;4.70;;;1.98;;
44430;SDS011;30135;47.866;-4.222;2023-02-28T15:53:43;5.95;;;1.38;;
44430;SDS011;30135;47.866;-4.222;2023-02-28T15:59:06;5.13;;;1.52;;
44430;SDS011;30135;47.866;-4.222;2023-02-28T16:01:40;0.68;;;0.50;;
44430;SDS011;30135;47.866;-4.222;2023-02-28T16:04:13;2.05;;;1.02;;
44430;SDS011;30135;47.866;-4.222;2023-02-28T16:09:23;4.55;;;2.05;;
44430;SDS011;30135;47.866;-4.222;2023-02-28T16:11:50;10.15;;;0.98;;
44430;SDS011;30135;47.866;-4.222;2023-02-28T16:14:20;4.85;;;1.40;;
44430;SDS011;30135;47.866;-4.222;2023-02-28T16:17:11;3.00;;;0.80;;
44430;SDS011;30135;47.866;-4.222;2023-02-28T16:19:46;5.38;;;1.27;;
44430;SDS011;30135;47.866;-4.222;2023-02-28T16:22:12;5.22;;;1.08;;
44430;SDS011;30135;47.866;-4.222;2023-02-28T16:24:38;2.58;;;0.70;;
44430;SDS011;30135;47.866;-4.222;2023-02-28T16:27:05;3.63;;;1.38;;
44430;SDS011;30135;47.866;-4.222;2023-02-28T16:29:34;1.27;;;0.77;;
44430;SDS011;30135;47.866;-4.222;2023-02-28T16:32:04;6.22;;;1.33;;
44430;SDS011;30135;47.866;-4.222;2023-02-28T16:34:31;1.92;;;0.80;;
44430;SDS011;30135;47.866;-4.222;2023-02-28T16:36:57;3.63;;;1.70;;
44430;SDS011;30135;47.866;-4.222;2023-02-28T16:39:23;2.28;;;0.95;;
44430;SDS011;30135;47.866;-4.222;2023-02-28T16:41:49;2.33;;;0.93;;
44430;SDS011;30135;47.866;-4.222;2023-02-28T16:46:51;1.45;;;0.40;;
44430;SDS011;30135;47.866;-4.222;2023-02-28T16:49:17;4.70;;;0.88;;
44430;SDS011;30135;47.866;-4.222;2023-02-28T16:51:44;11.10;;;0.85;;
44430;SDS011;30135;47.866;-4.222;2023-02-28T16:54:31;4.25;;;1.33;;
44430;SDS011;30135;47.866;-4.222;2023-02-28T16:56:57;17.63;;;1.52;;
44430;SDS011;30135;47.866;-4.222;2023-02-28T16:59:29;3.92;;;0.70;;
44430;SDS011;30135;47.866;-4.222;2023-02-28T17:01:55;3.85;;;0.55;;
44430;SDS011;30135;47.866;-4.222;2023-02-28T17:04:25;6.75;;;1.38;;
44430;SDS011;30135;47.866;-4.222;2023-02-28T17:06:52;3.38;;;0.80;;
44430;SDS011;30135;47.866;-4.222;2023-02-28T17:09:21;4.63;;;0.98;;
44430;SDS011;30135;47.866;-4.222;2023-02-28T17:11:50;1.85;;;0.80;;
44430;SDS011;30135;47.866;-4.222;2023-02-28T17:14:16;2.40;;;0.68;;
44430;SDS011;30135;47.866;-4.222;2023-02-28T17:16:42;3.67;;;0.88;;
44430;SDS011;30135;47.866;-4.222;2023-02-28T17:19:12;6.88;;;0.95;;
44430;SDS011;30135;47.866;-4.222;2023-02-28T17:21:41;5.63;;;1.25;;
44430;SDS011;30135;47.866;-4.222;2023-02-28T17:24:08;5.57;;;1.48;;
44430;SDS011;30135;47.866;-4.222;2023-02-28T17:26:37;3.17;;;1.10;;
44430;SDS011;30135;47.866;-4.222;2023-02-28T17:31:40;6.70;;;1.40;;
44430;SDS011;30135;47.866;-4.222;2023-02-28T17:34:06;10.02;;;1.33;;
44430;SDS011;30135;47.866;-4.222;2023-02-28T17:36:33;9.70;;;1.58;;
44430;SDS011;30135;47.866;-4.222;2023-02-28T17:39:02;18.35;;;2.15;;
44430;SDS011;30135;47.866;-4.222;2023-02-28T17:41:29;4.00;;;0.80;;
44430;SDS011;30135;47.866;-4.222;2023-02-28T17:43:56;4.38;;;1.92;;
44430;SDS011;30135;47.866;-4.222;2023-02-28T17:46:23;6.68;;;1.50;;
44430;SDS011;30135;47.866;-4.222;2023-02-28T17:48:51;8.23;;;1.15;;
44430;SDS011;30135;47.866;-4.222;2023-02-28T17:51:18;4.60;;;1.35;;
44430;SDS011;30135;47.866;-4.222;2023-02-28T17:53:47;5.78;;;1.17;;
44430;SDS011;30135;47.866;-4.222;2023-02-28T17:56:23;5.72;;;0.77;;
44430;SDS011;30135;47.866;-4.222;2023-02-28T17:58:52;5.28;;;0.98;;
44430;SDS011;30135;47.866;-4.222;2023-02-28T18:01:20;4.40;;;1.50;;
44430;SDS011;30135;47.866;-4.222;2023-02-28T18:03:47;3.10;;;0.82;;